KSGR/SGR METAR and TAF weather

Enter ICAO airport designator
Station Type Date Time Source
KSGR METAR 2020/12/06 00:53 UTC NOAA

KSGR 060053Z 20003KT 10SM OVC060 12/07 A3022 RMK AO2 SLP234 T01170067


Station Type Date Time Source
KSGR Decoded METAR 2020/12/06 00:53 UTC NOAA

SUGARLAND REGIONAL AIRPORT, TX, United States (KSGR) 29-37N 095-39W
Dec 05, 2020 - 07:53 PM EST / 2020.12.06 0053 UTC
Wind: from the SSW (200 degrees) at 3 MPH (3 KT):0
Visibility: 10 mile(s):0
Sky conditions: overcast
Temperature: 53.1 F (11.7 C)
Dew Point: 44.1 F (6.7 C)
Relative Humidity: 71%
Pressure (altimeter): 30.22 in. Hg (1023 hPa)
ob: KSGR 060053Z 20003KT 10SM OVC060 12/07 A3022 RMK AO2 SLP234 T01170067
cycle: 1

Station Type Date Time Source
KSGR TAF 2020/12/05 18:42 UTC NOAA

TAF KSGR 051740Z 0518/0618 VRB04KT 6SM BR SKC
FM052100 VRB04KT P6SM OVC050
FM060000 VRB04KT P6SM VCSH OVC050
FM060300 VRB04KT P6SM -SHRA OVC020
FM060900 VRB03KT P6SM VCSH OVC025
FM061400 29004KT P6SM OVC100

Example: see airport list